Time;durP1;ratioP1;P1;durP2;ratioP2;P2;SDS_P1;SDS_P2;PMS_P1;PMS_P2;Temp;Humidity;BMP_temperature;BMP_pressure;BME280_temperature;BME280_humidity;BME280_pressure;Samples;Min_cycle;Max_cycle;Signal;HPM_P1;HPM_P2
2022/09/13 00:01:42;;;;;;;2.88;2.67;;;16.50;99.90;;;;;;5081631;28;20730;-71
2022/09/13 00:04:07;;;;;;;4.85;3.35;;;16.40;99.90;;;;;;5071294;28;20206;-72
2022/09/13 00:06:34;;;;;;;2.75;2.40;;;16.40;99.90;;;;;;5077783;28;20289;-71
2022/09/13 00:09:00;;;;;;;3.22;2.92;;;16.40;99.90;;;;;;5078523;28;20211;-71
2022/09/13 00:11:28;;;;;;;3.45;3.08;;;16.30;99.90;;;;;;5076911;28;20662;-71
2022/09/13 00:13:54;;;;;;;3.80;3.00;;;16.40;99.90;;;;;;5077438;28;20265;-71
2022/09/13 00:16:23;;;;;;;4.35;3.00;;;16.30;99.90;;;;;;5077900;28;20253;-71
2022/09/13 00:18:49;;;;;;;4.28;2.97;;;16.20;99.90;;;;;;5080986;28;20214;-72
2022/09/13 00:21:17;;;;;;;3.78;2.83;;;16.30;99.90;;;;;;5074096;28;20211;-72
2022/09/13 00:23:45;;;;;;;2.90;2.70;;;16.20;99.90;;;;;;5079589;28;20238;-72
2022/09/13 00:26:19;;;;;;;3.15;2.78;;;16.30;99.90;;;;;;5081821;28;20273;-71
2022/09/13 00:28:50;;;;;;;5.20;3.15;;;16.20;99.90;;;;;;5076638;28;20209;-71
2022/09/13 00:31:16;;;;;;;3.55;3.15;;;16.20;99.90;;;;;;5072153;28;20203;-72
2022/09/13 00:33:42;;;;;;;3.97;2.85;;;16.20;99.90;;;;;;5080077;28;20212;-71
2022/09/13 00:36:10;;;;;;;3.75;2.80;;;16.20;99.90;;;;;;5080291;28;20289;-71
2022/09/13 00:38:39;;;;;;;3.30;2.85;;;16.10;99.90;;;;;;5075960;28;20195;-72
2022/09/13 00:41:07;;;;;;;3.20;2.88;;;16.10;99.90;;;;;;5076516;28;20612;-72
2022/09/13 00:44:00;;;;;;;2.67;2.47;;;16.10;99.90;;;;;;5080966;28;20194;-73
2022/09/13 00:46:32;;;;;;;4.85;2.83;;;16.20;99.90;;;;;;5069771;28;20234;-71
2022/09/13 00:49:12;;;;;;;5.32;3.20;;;16.10;99.90;;;;;;5076163;28;20691;-71
2022/09/13 00:51:42;;;;;;;2.42;2.22;;;16.20;99.90;;;;;;5076422;28;20243;-71
2022/09/13 00:54:08;;;;;;;3.60;2.88;;;16.20;99.90;;;;;;5076395;28;20207;-72
2022/09/13 00:56:40;;;;;;;3.72;2.90;;;16.10;99.90;;;;;;5074297;28;20226;-72
2022/09/13 00:59:29;;;;;;;2.97;2.30;;;16.10;99.90;;;;;;5072519;28;20205;-73
2022/09/13 01:01:56;;;;;;;2.80;2.60;;;16.10;99.90;;;;;;5073927;28;20685;-71
2022/09/13 01:04:26;;;;;;;3.72;2.78;;;16.10;99.90;;;;;;5062449;28;20598;-72
2022/09/13 01:06:54;;;;;;;2.78;2.58;;;16.10;99.90;;;;;;5077111;28;20210;-71
2022/09/13 01:09:20;;;;;;;4.00;2.35;;;16.10;99.90;;;;;;5080356;28;20209;-71
2022/09/13 01:11:49;;;;;;;2.92;2.50;;;16.10;99.90;;;;;;5079881;28;20214;-71
2022/09/13 01:14:16;;;;;;;3.08;2.80;;;16.20;99.90;;;;;;5071675;28;20188;-70
2022/09/13 01:16:42;;;;;;;2.88;2.55;;;16.10;99.90;;;;;;5073484;28;20218;-70
2022/09/13 01:19:08;;;;;;;2.83;2.58;;;16.10;99.90;;;;;;5079636;28;20662;-78
2022/09/13 01:21:57;;;;;;;3.40;2.72;;;16.10;99.90;;;;;;5075051;28;20246;-72
2022/09/13 01:24:22;;;;;;;2.90;2.70;;;16.10;99.90;;;;;;5076142;28;20274;-71
2022/09/13 01:27:03;;;;;;;2.92;2.65;;;16.00;99.90;;;;;;5078338;28;20709;-71
2022/09/13 01:29:40;;;;;;;2.50;2.30;;;16.00;99.90;;;;;;5067198;28;20171;-71
2022/09/13 01:32:20;;;;;;;3.15;2.85;;;16.00;99.90;;;;;;5072602;28;20731;-72
2022/09/13 01:34:51;;;;;;;3.17;2.70;;;16.00;99.90;;;;;;5072876;28;20208;-73
2022/09/13 01:37:20;;;;;;;3.05;2.78;;;16.10;99.90;;;;;;5058645;28;20581;-71
2022/09/13 01:40:16;;;;;;;3.35;2.67;;;16.00;99.90;;;;;;5068485;28;20206;-71
2022/09/13 01:42:54;;;;;;;3.45;2.95;;;16.00;99.90;;;;;;5075374;28;20206;-70
2022/09/13 01:45:49;;;;;;;3.42;2.88;;;15.90;99.90;;;;;;5077639;28;20234;-72
2022/09/13 01:48:24;;;;;;;3.47;3.03;;;15.80;99.90;;;;;;5070339;28;20237;-71
2022/09/13 01:50:54;;;;;;;3.30;3.00;;;15.80;99.90;;;;;;5076572;28;20651;-71
2022/09/13 01:53:33;;;;;;;3.38;3.03;;;15.80;99.90;;;;;;5081702;28;20170;-72
2022/09/13 01:56:07;;;;;;;3.50;3.20;;;15.70;99.90;;;;;;5070197;28;20198;-72
2022/09/13 01:59:00;;;;;;;5.40;3.00;;;15.80;99.90;;;;;;5080437;28;20213;-70
2022/09/13 02:01:53;;;;;;;4.28;2.67;;;15.70;99.90;;;;;;5079301;28;20206;-71
2022/09/13 02:04:28;;;;;;;3.70;2.85;;;15.80;99.90;;;;;;5078711;28;20195;-71
2022/09/13 02:07:33;;;;;;;4.38;2.90;;;15.70;99.90;;;;;;5075260;28;20583;-73
2022/09/13 02:10:06;;;;;;;4.72;3.03;;;15.70;99.90;;;;;;5050480;28;20227;-71
2022/09/13 02:12:35;;;;;;;3.33;3.03;;;15.70;99.90;;;;;;5074976;28;20222;-71
2022/09/13 02:15:18;;;;;;;5.32;3.97;;;15.60;99.90;;;;;;5074292;28;20214;-71
2022/09/13 02:18:10;;;;;;;3.53;3.13;;;15.60;99.90;;;;;;5075998;28;20304;-70
2022/09/13 02:20:41;;;;;;;3.85;2.60;;;15.60;99.90;;;;;;5080050;28;20218;-75
2022/09/13 02:23:13;;;;;;;5.07;3.30;;;15.50;99.90;;;;;;5073606;28;20174;-72
2022/09/13 02:25:40;;;;;;;3.50;3.20;;;15.50;99.90;;;;;;5073358;28;20685;-71
2022/09/13 02:28:09;;;;;;;6.03;3.85;;;15.50;99.90;;;;;;5077494;28;20210;-70
2022/09/13 02:30:42;;;;;;;3.63;3.33;;;15.50;99.90;;;;;;5071114;28;20217;-71
2022/09/13 02:33:17;;;;;;;3.67;3.33;;;15.40;99.90;;;;;;5073030;28;20220;-72
2022/09/13 02:35:59;;;;;;;3.55;3.25;;;15.50;99.90;;;;;;5075535;28;20210;-72
2022/09/13 02:38:45;;;;;;;4.18;3.78;;;15.40;99.90;;;;;;5071702;28;20203;-73
2022/09/13 02:41:26;;;;;;;4.45;3.85;;;15.40;99.90;;;;;;5068630;28;20747;-73
2022/09/13 02:44:04;;;;;;;4.85;3.72;;;15.40;99.90;;;;;;5078128;28;20255;-72
2022/09/13 02:46:49;;;;;;;3.72;3.42;;;15.40;99.90;;;;;;5067026;28;20212;-72
2022/09/13 02:49:53;;;;;;;4.13;3.72;;;15.40;99.90;;;;;;5072498;28;20263;-71
2022/09/13 02:52:35;;;;;;;6.20;3.72;;;15.30;99.90;;;;;;5015955;28;20235;-71
2022/09/13 02:55:16;;;;;;;3.72;3.42;;;15.30;99.90;;;;;;4997474;28;20209;-72
2022/09/13 02:58:23;;;;;;;4.78;4.05;;;15.30;99.90;;;;;;5054236;28;20245;-69
2022/09/13 03:00:49;;;;;;;4.00;3.70;;;15.20;99.90;;;;;;5004411;28;20743;-72
2022/09/13 03:03:15;;;;;;;4.07;3.38;;;15.30;99.90;;;;;;5067639;28;20238;-72
2022/09/13 03:05:42;;;;;;;4.95;3.35;;;15.30;99.90;;;;;;5073595;28;20214;-71
2022/09/13 03:08:10;;;;;;;4.05;3.65;;;15.30;99.90;;;;;;5076244;28;20174;-71
2022/09/13 03:11:19;;;;;;;4.07;3.67;;;15.30;99.90;;;;;;5076558;28;20235;-71
2022/09/13 03:13:53;;;;;;;4.60;3.60;;;15.20;99.90;;;;;;5067326;28;20728;-72
2022/09/13 03:16:50;;;;;;;4.28;3.80;;;15.30;99.90;;;;;;5062525;28;20699;-71
2022/09/13 03:19:43;;;;;;;4.97;3.88;;;15.30;99.90;;;;;;5080135;28;20297;-71
2022/09/13 03:22:22;;;;;;;3.67;3.15;;;15.20;99.90;;;;;;5074204;28;20209;-71
2022/09/13 03:24:57;;;;;;;4.50;3.70;;;15.20;99.90;;;;;;5076969;28;20236;-72
2022/09/13 03:27:45;;;;;;;4.28;3.88;;;15.20;99.90;;;;;;5076302;28;20251;-71
2022/09/13 03:30:13;;;;;;;4.65;4.18;;;15.20;99.90;;;;;;5074532;28;20241;-70
2022/09/13 03:33:05;;;;;;;4.20;3.65;;;15.20;99.90;;;;;;5077402;28;20175;-71
2022/09/13 03:35:53;;;;;;;4.15;3.75;;;15.10;99.90;;;;;;5076674;28;20171;-73
2022/09/13 03:38:26;;;;;;;4.28;3.60;;;15.10;99.90;;;;;;5064571;28;20188;-71
2022/09/13 03:41:04;;;;;;;4.55;4.15;;;15.10;99.90;;;;;;5078330;28;20215;-72
2022/09/13 03:43:47;;;;;;;4.38;3.97;;;15.10;99.90;;;;;;5080409;28;20234;-71
2022/09/13 03:46:31;;;;;;;4.43;4.03;;;15.10;99.90;;;;;;5077904;28;20203;-71
2022/09/13 03:49:02;;;;;;;4.35;3.95;;;15.10;99.90;;;;;;5074940;28;20199;-71
2022/09/13 03:51:27;;;;;;;5.07;4.45;;;15.10;99.90;;;;;;5077698;28;20211;-71
2022/09/13 03:53:57;;;;;;;4.60;4.03;;;15.00;99.90;;;;;;5082050;28;20206;-71
2022/09/13 03:56:23;;;;;;;4.22;3.83;;;15.00;99.90;;;;;;5074590;28;20712;-71
2022/09/13 03:58:49;;;;;;;5.30;4.38;;;15.00;99.90;;;;;;5080101;28;20210;-71
2022/09/13 04:01:20;;;;;;;4.60;4.20;;;15.10;99.90;;;;;;5078516;28;20213;-71
2022/09/13 04:03:46;;;;;;;5.78;4.20;;;15.10;99.90;;;;;;5079401;28;20203;-71
2022/09/13 04:06:12;;;;;;;5.95;4.47;;;15.20;99.90;;;;;;5073375;28;22400;-71
2022/09/13 04:08:38;;;;;;;4.10;3.80;;;15.20;99.90;;;;;;5079451;28;20189;-71
2022/09/13 04:11:04;;;;;;;5.50;4.00;;;15.20;99.90;;;;;;5079212;28;20201;-71
2022/09/13 04:13:29;;;;;;;5.35;4.85;;;15.20;99.90;;;;;;5077798;28;20213;-71
2022/09/13 04:16:01;;;;;;;6.40;4.80;;;15.20;99.90;;;;;;5078150;28;20727;-71
2022/09/13 04:18:27;;;;;;;5.55;4.80;;;15.20;99.90;;;;;;5078971;28;20215;-71
2022/09/13 04:20:57;;;;;;;5.20;4.70;;;15.20;99.90;;;;;;5079149;28;20276;-71
2022/09/13 04:23:24;;;;;;;5.15;4.45;;;15.20;99.90;;;;;;5075295;28;20669;-71
2022/09/13 04:25:52;;;;;;;5.55;4.40;;;15.10;99.90;;;;;;5080255;28;20182;-72
2022/09/13 04:28:18;;;;;;;6.05;4.45;;;15.10;99.90;;;;;;5069818;28;20752;-72
2022/09/13 04:30:44;;;;;;;5.72;5.03;;;15.10;99.90;;;;;;5070601;28;20213;-70
2022/09/13 04:33:10;;;;;;;5.20;4.68;;;15.00;99.90;;;;;;5077565;28;20210;-70
2022/09/13 04:35:38;;;;;;;7.25;5.43;;;15.00;99.90;;;;;;5081188;28;20169;-71
2022/09/13 04:38:04;;;;;;;7.22;4.97;;;15.10;99.90;;;;;;5073732;28;20617;-72
2022/09/13 04:40:29;;;;;;;5.50;5.00;;;15.10;99.90;;;;;;5077798;28;20202;-72
2022/09/13 04:42:55;;;;;;;6.65;5.55;;;15.20;99.90;;;;;;5078854;28;20209;-73
2022/09/13 04:45:21;;;;;;;6.13;5.50;;;15.00;99.90;;;;;;5075259;28;20232;-72
2022/09/13 04:47:52;;;;;;;6.35;5.53;;;15.00;99.90;;;;;;5082245;28;20342;-71
2022/09/13 04:50:19;;;;;;;6.30;5.68;;;15.00;99.90;;;;;;5078070;28;20211;-72
2022/09/13 04:55:16;;;;;;;6.25;5.65;;;15.00;99.90;;;;;;5044860;23;20225;-69
2022/09/13 04:57:41;;;;;;;6.38;5.75;;;15.00;99.90;;;;;;5026577;28;20220;-69
2022/09/13 05:00:08;;;;;;;6.10;5.30;;;15.10;99.90;;;;;;5027197;28;20208;-69
2022/09/13 05:02:34;;;;;;;8.15;5.57;;;15.10;99.90;;;;;;5030905;28;20176;-69
2022/09/13 05:04:59;;;;;;;6.18;5.57;;;15.20;99.90;;;;;;5024449;28;20192;-69
2022/09/13 05:07:25;;;;;;;5.70;5.07;;;15.20;99.90;;;;;;5026385;28;20215;-69
2022/09/13 05:09:51;;;;;;;7.13;5.70;;;15.10;99.90;;;;;;5029093;28;20230;-69
2022/09/13 05:12:16;;;;;;;7.00;5.72;;;15.10;99.90;;;;;;5023841;28;20271;-69
2022/09/13 05:14:42;;;;;;;8.18;5.30;;;15.20;99.90;;;;;;5025010;28;20702;-69
2022/09/13 05:17:07;;;;;;;6.93;5.68;;;15.20;99.90;;;;;;5027322;28;20168;-70
2022/09/13 05:19:33;;;;;;;6.53;5.25;;;15.20;99.90;;;;;;5030501;28;20204;-69
2022/09/13 05:21:59;;;;;;;8.32;5.80;;;15.20;99.90;;;;;;5023411;28;20211;-69
2022/09/13 05:24:25;;;;;;;8.45;5.72;;;15.20;99.90;;;;;;5025599;28;20286;-70
2022/09/13 05:26:51;;;;;;;8.25;5.53;;;15.20;99.90;;;;;;5029112;28;20236;-69
2022/09/13 05:29:16;;;;;;;9.35;7.63;;;15.20;99.90;;;;;;5023620;28;20181;-69
2022/09/13 05:31:42;;;;;;;7.40;5.60;;;15.30;99.90;;;;;;5022119;28;20204;-69
2022/09/13 05:34:13;;;;;;;8.52;5.82;;;15.40;99.90;;;;;;5026143;28;20247;-69
2022/09/13 05:36:40;;;;;;;6.32;5.00;;;15.40;99.90;;;;;;5030154;28;20279;-69
2022/09/13 05:39:06;;;;;;;5.90;5.30;;;15.30;99.90;;;;;;5022078;28;20223;-69
2022/09/13 05:41:32;;;;;;;8.60;5.40;;;15.30;99.90;;;;;;5022622;28;20223;-68
2022/09/13 05:43:59;;;;;;;10.35;7.90;;;15.30;99.90;;;;;;5028309;28;20195;-67
2022/09/13 05:46:25;;;;;;;10.55;8.50;;;15.40;99.90;;;;;;5027595;28;20213;-67
2022/09/13 05:48:50;;;;;;;8.88;5.80;;;15.40;99.90;;;;;;5024145;28;20562;-67
2022/09/13 05:51:18;;;;;;;6.50;5.75;;;15.50;99.90;;;;;;5025515;28;20951;-67
2022/09/13 05:53:46;;;;;;;10.18;6.35;;;15.50;99.90;;;;;;5027997;28;20232;-67
2022/09/13 05:56:17;;;;;;;11.05;6.60;;;15.40;99.90;;;;;;5021472;28;20185;-68
2022/09/13 05:58:48;;;;;;;9.50;6.43;;;15.50;99.90;;;;;;5023355;28;20730;-68
2022/09/13 06:01:19;;;;;;;8.50;6.88;;;15.50;99.90;;;;;;5027132;28;20207;-68
2022/09/13 06:03:52;;;;;;;8.43;7.10;;;15.60;99.90;;;;;;5027009;28;20216;-68
2022/09/13 06:06:18;;;;;;;10.68;6.80;;;15.60;99.90;;;;;;5023154;28;20228;-68
2022/09/13 06:08:44;;;;;;;10.40;6.53;;;15.60;99.90;;;;;;5027673;28;20204;-67
2022/09/13 06:11:12;;;;;;;9.10;6.63;;;15.60;99.90;;;;;;5026890;28;20709;-68
2022/09/13 06:13:38;;;;;;;8.98;6.95;;;15.60;99.90;;;;;;5023284;28;20761;-68
2022/09/13 06:16:07;;;;;;;10.85;6.78;;;15.60;99.90;;;;;;5024587;28;20212;-68
2022/09/13 06:18:33;;;;;;;7.78;6.82;;;15.60;99.90;;;;;;5028425;28;20216;-68
2022/09/13 06:21:04;;;;;;;8.20;6.55;;;15.60;99.90;;;;;;5025182;28;20250;-68
2022/09/13 06:23:30;;;;;;;13.60;7.30;;;15.60;99.90;;;;;;5023850;28;20222;-68
2022/09/13 06:26:08;;;;;;;13.27;6.68;;;15.60;99.90;;;;;;5027230;28;20779;-68
2022/09/13 06:28:34;;;;;;;32.65;7.97;;;15.50;99.90;;;;;;5022088;28;20204;-69
2022/09/13 06:31:11;;;;;;;15.70;8.68;;;15.60;99.90;;;;;;5021284;28;20205;-68
2022/09/13 06:33:39;;;;;;;16.52;8.57;;;15.40;99.90;;;;;;5022635;28;20216;-67
2022/09/13 06:36:07;;;;;;;11.18;8.05;;;15.40;99.90;;;;;;5027852;28;20215;-68
2022/09/13 06:38:33;;;;;;;18.02;8.05;;;15.50;99.90;;;;;;5023451;28;20200;-68
2022/09/13 06:41:06;;;;;;;11.52;7.65;;;15.50;99.90;;;;;;5024584;28;20199;-68
2022/09/13 06:43:32;;;;;;;13.18;7.72;;;15.60;99.90;;;;;;5022464;28;20212;-67
2022/09/13 06:46:05;;;;;;;12.45;8.70;;;15.70;99.90;;;;;;5028529;28;20205;-68
2022/09/13 06:48:31;;;;;;;9.95;7.13;;;15.80;99.90;;;;;;5021848;28;20634;-68
2022/09/13 06:50:58;;;;;;;14.10;7.72;;;15.80;99.90;;;;;;5025473;28;20212;-68
2022/09/13 06:53:24;;;;;;;12.68;7.65;;;15.90;99.90;;;;;;5031945;28;20215;-68
2022/09/13 06:56:05;;;;;;;9.27;7.07;;;15.90;99.90;;;;;;5027985;28;20225;-69
2022/09/13 06:58:31;;;;;;;13.27;8.40;;;16.10;99.90;;;;;;5028738;28;20208;-68
2022/09/13 07:01:19;;;;;;;9.13;6.82;;;16.20;99.90;;;;;;5030465;28;20210;-68
2022/09/13 07:03:47;;;;;;;15.43;7.35;;;16.30;99.90;;;;;;5029546;28;20208;-67
2022/09/13 07:06:18;;;;;;;10.25;7.18;;;16.30;99.90;;;;;;5025603;28;20300;-68
2022/09/13 07:08:45;;;;;;;13.70;7.88;;;16.50;99.90;;;;;;5030770;28;20211;-68
2022/09/13 07:11:13;;;;;;;12.32;7.60;;;16.40;99.90;;;;;;5029990;28;20271;-69
2022/09/13 07:13:38;;;;;;;11.20;7.93;;;16.40;99.90;;;;;;5026796;28;20209;-68
2022/09/13 07:16:10;;;;;;;10.07;7.75;;;16.40;99.90;;;;;;5027766;28;20208;-69
2022/09/13 07:18:36;;;;;;;13.15;9.20;;;16.30;99.90;;;;;;5032117;28;20220;-69
2022/09/13 07:21:06;;;;;;;10.82;8.10;;;16.20;99.90;;;;;;5028003;28;20612;-68
2022/09/13 07:23:33;;;;;;;12.82;9.05;;;16.30;99.90;;;;;;5027475;28;20192;-68
2022/09/13 07:26:04;;;;;;;11.77;8.30;;;16.30;99.90;;;;;;5029945;28;20184;-68
2022/09/13 07:28:38;;;;;;;11.45;7.53;;;16.30;99.90;;;;;;5029249;28;20267;-69
2022/09/13 07:31:21;;;;;;;9.80;7.60;;;16.50;99.90;;;;;;5026939;28;20234;-69
2022/09/13 07:33:51;;;;;;;9.98;8.40;;;16.50;99.90;;;;;;5027070;28;20227;-68
2022/09/13 07:36:17;;;;;;;9.93;7.25;;;16.50;99.90;;;;;;5029800;28;20211;-68
2022/09/13 07:38:46;;;;;;;9.23;8.02;;;16.50;99.90;;;;;;5026001;28;20220;-68
2022/09/13 07:41:14;;;;;;;16.27;9.65;;;16.50;99.90;;;;;;5025599;28;20196;-69
2022/09/13 07:43:40;;;;;;;14.18;7.97;;;16.70;99.90;;;;;;5030577;28;20587;-68
2022/09/13 07:46:09;;;;;;;8.68;7.20;;;16.60;99.90;;;;;;5030481;28;20208;-68
2022/09/13 07:48:38;;;;;;;13.82;8.13;;;16.60;99.90;;;;;;5026346;28;20235;-68
2022/09/13 07:51:05;;;;;;;11.07;8.02;;;16.60;99.90;;;;;;5027401;28;20246;-68
2022/09/13 07:53:31;;;;;;;9.27;7.78;;;16.60;99.90;;;;;;5031351;28;20269;-68
2022/09/13 07:56:02;;;;;;;12.75;9.32;;;16.80;99.90;;;;;;5025145;28;20204;-68
2022/09/13 07:58:29;;;;;;;18.35;11.73;;;17.00;99.90;;;;;;5026797;28;20254;-68
2022/09/13 08:01:05;;;;;;;10.75;8.25;;;17.30;99.90;;;;;;5029355;28;20257;-68
2022/09/13 08:03:32;;;;;;;11.10;7.70;;;17.50;99.90;;;;;;5027877;28;20703;-69
2022/09/13 08:05:58;;;;;;;7.82;7.03;;;17.70;99.90;;;;;;5025800;28;20326;-68
2022/09/13 08:08:23;;;;;;;9.93;8.27;;;17.80;99.90;;;;;;5027113;28;20211;-69
2022/09/13 08:10:49;;;;;;;13.85;8.13;;;17.80;99.90;;;;;;5030237;28;20618;-68
2022/09/13 08:13:16;;;;;;;11.25;7.35;;;17.70;99.90;;;;;;5022242;28;20768;-68
2022/09/13 08:15:42;;;;;;;9.43;7.15;;;17.80;99.90;;;;;;5028167;28;20200;-69
2022/09/13 08:18:08;;;;;;;10.88;7.90;;;18.00;99.90;;;;;;5029195;28;20728;-68
2022/09/13 08:20:37;;;;;;;12.18;7.90;;;18.20;99.90;;;;;;5028355;28;20192;-68
2022/09/13 08:23:04;;;;;;;8.30;7.50;;;18.30;99.90;;;;;;5025146;28;20238;-69
2022/09/13 08:25:35;;;;;;;28.65;9.35;;;18.30;99.90;;;;;;5027478;28;20746;-68
2022/09/13 08:28:17;;;;;;;12.63;8.05;;;18.50;99.90;;;;;;5028800;28;20211;-68
2022/09/13 08:30:43;;;;;;;15.52;8.43;;;18.60;99.90;;;;;;5027934;28;20208;-69
2022/09/13 08:33:10;;;;;;;11.23;8.32;;;18.60;99.90;;;;;;5029701;28;20239;-68
2022/09/13 08:35:36;;;;;;;9.23;7.45;;;18.40;99.90;;;;;;5026501;28;20173;-69
2022/09/13 08:38:03;;;;;;;19.05;7.95;;;18.20;99.90;;;;;;5026892;28;20254;-68
2022/09/13 08:40:41;;;;;;;14.68;7.53;;;18.10;99.90;;;;;;5023467;28;20213;-68
2022/09/13 08:43:59;;;;;;;9.38;7.97;;;18.50;99.90;;;;;;5024700;28;20216;-69
2022/09/13 08:46:42;;;;;;;14.77;8.75;;;19.00;99.90;;;;;;4986688;28;20210;-68
2022/09/13 08:49:13;;;;;;;13.23;7.88;;;19.50;99.90;;;;;;4973146;28;20272;-69
2022/09/13 08:51:41;;;;;;;28.70;8.48;;;20.00;99.90;;;;;;5014226;28;20205;-68
2022/09/13 08:54:15;;;;;;;9.40;6.63;;;20.30;99.90;;;;;;5028482;28;20215;-68
2022/09/13 08:56:51;;;;;;;7.45;6.40;;;20.10;99.90;;;;;;5025125;28;20204;-69
2022/09/13 08:59:50;;;;;;;8.50;6.80;;;20.40;99.90;;;;;;5025679;28;20197;-67
2022/09/13 09:02:55;;;;;;;16.33;7.47;;;20.50;99.90;;;;;;5004954;28;20201;-68
2022/09/13 09:05:28;;;;;;;41.17;8.90;;;20.60;99.90;;;;;;4995498;28;20234;-69
2022/09/13 09:08:22;;;;;;;18.98;9.27;;;20.70;99.90;;;;;;5020137;28;20184;-69
2022/09/13 09:10:50;;;;;;;10.95;6.38;;;20.80;99.90;;;;;;5029078;28;20208;-68
2022/09/13 09:13:27;;;;;;;11.57;6.45;;;21.30;99.90;;;;;;5021094;28;20216;-68
2022/09/13 09:16:04;;;;;;;17.75;9.25;;;21.60;99.90;;;;;;5025709;28;20208;-68
2022/09/13 09:18:38;;;;;;;9.52;6.82;;;21.60;99.90;;;;;;5024158;28;20647;-68
2022/09/13 09:21:09;;;;;;;19.63;8.15;;;21.90;99.90;;;;;;5025072;28;20216;-68
2022/09/13 09:23:50;;;;;;;19.45;8.18;;;22.50;99.90;;;;;;5025619;28;20249;-69
2022/09/13 09:26:30;;;;;;;11.20;8.02;;;22.70;99.90;;;;;;5027224;28;20203;-69
2022/09/13 09:29:10;;;;;;;9.25;5.60;;;22.70;99.90;;;;;;5022175;28;20741;-67
2022/09/13 09:32:02;;;;;;;7.53;5.85;;;22.90;99.90;;;;;;5024568;28;20262;-67
2022/09/13 09:35:09;;;;;;;8.85;5.95;;;23.10;99.90;;;;;;5025393;28;20208;-67
2022/09/13 09:37:36;;;;;;;7.25;6.00;;;23.40;99.90;;;;;;4969229;28;20240;-67
2022/09/13 09:40:09;;;;;;;8.43;6.07;;;23.40;99.90;;;;;;5022991;28;20208;-69
2022/09/13 09:42:46;;;;;;;6.85;5.78;;;23.60;99.90;;;;;;5023656;28;20211;-67
2022/09/13 09:45:28;;;;;;;6.95;6.13;;;23.40;99.90;;;;;;5029061;28;21206;-67
2022/09/13 09:47:56;;;;;;;9.15;6.18;;;23.40;99.90;;;;;;5021185;28;20323;-69
2022/09/13 09:50:37;;;;;;;6.75;5.35;;;23.70;99.90;;;;;;5024992;28;20212;-67
2022/09/13 09:53:19;;;;;;;7.32;5.97;;;23.60;99.90;;;;;;5009360;28;20212;-68
2022/09/13 09:56:02;;;;;;;7.00;5.88;;;23.30;99.90;;;;;;5023048;28;20784;-68
2022/09/13 09:58:40;;;;;;;7.15;6.10;;;23.60;99.90;;;;;;5024211;28;20571;-68
2022/09/13 10:01:15;;;;;;;6.70;5.70;;;24.00;99.90;;;;;;5020478;28;20322;-68
2022/09/13 10:03:40;;;;;;;9.32;6.85;;;24.20;99.90;;;;;;5025361;28;20207;-68
2022/09/13 10:06:18;;;;;;;8.55;6.35;;;24.20;99.90;;;;;;5021119;28;20208;-68
2022/09/13 10:08:55;;;;;;;7.55;5.90;;;24.30;99.90;;;;;;5024693;28;20701;-67
2022/09/13 10:11:22;;;;;;;8.82;6.13;;;23.80;99.90;;;;;;5025530;28;20303;-67
2022/09/13 10:14:02;;;;;;;7.40;6.65;;;23.80;99.90;;;;;;5024500;28;20747;-67
2022/09/13 10:16:29;;;;;;;7.22;6.53;;;23.70;99.90;;;;;;5025335;28;20286;-68
2022/09/13 10:19:24;;;;;;;11.50;7.18;;;23.60;99.90;;;;;;5028151;28;20216;-67
2022/09/13 10:22:10;;;;;;;8.18;6.82;;;23.60;99.90;;;;;;5020283;28;20212;-67
2022/09/13 10:24:36;;;;;;;8.32;5.72;;;23.50;99.90;;;;;;5025992;28;20227;-68
2022/09/13 10:27:04;;;;;;;8.60;6.75;;;23.20;99.90;;;;;;5026544;28;20215;-68
2022/09/13 10:29:31;;;;;;;7.50;6.40;;;22.90;99.90;;;;;;5026576;28;20181;-68
2022/09/13 10:31:57;;;;;;;10.30;7.82;;;22.60;99.90;;;;;;5024902;28;20226;-67
2022/09/13 10:34:33;;;;;;;14.57;7.85;;;22.50;99.90;;;;;;5025797;28;20230;-68
2022/09/13 10:37:11;;;;;;;8.75;6.95;;;22.30;99.90;;;;;;5025563;28;20579;-67
2022/09/13 10:40:01;;;;;;;9.40;7.38;;;22.00;99.90;;;;;;5023038;28;20294;-68
2022/09/13 10:42:29;;;;;;;12.00;9.15;;;21.70;99.90;;;;;;5025761;28;20201;-67
2022/09/13 10:44:57;;;;;;;10.25;9.02;;;21.30;99.90;;;;;;5028208;28;20212;-68
2022/09/13 10:47:26;;;;;;;9.75;7.93;;;21.20;99.90;;;;;;5022165;28;20180;-67
2022/09/13 10:49:58;;;;;;;9.73;8.43;;;21.30;99.90;;;;;;5025483;28;20181;-67
2022/09/13 10:52:34;;;;;;;8.73;7.65;;;21.50;99.90;;;;;;5028482;28;20208;-67
2022/09/13 10:55:18;;;;;;;9.32;7.93;;;21.50;99.90;;;;;;5023691;28;20270;-67
2022/09/13 10:57:44;;;;;;;10.05;8.57;;;21.30;99.90;;;;;;5019551;28;20618;-67
2022/09/13 11:00:18;;;;;;;11.20;9.45;;;21.20;99.90;;;;;;5024896;28;20208;-67
2022/09/13 11:03:03;;;;;;;10.93;8.82;;;21.10;99.90;;;;;;5028921;28;20235;-67
2022/09/13 11:05:36;;;;;;;12.45;10.00;;;21.00;99.90;;;;;;5022073;28;20173;-68
2022/09/13 11:08:05;;;;;;;10.23;8.65;;;20.90;99.90;;;;;;5025085;28;20176;-68
2022/09/13 11:10:41;;;;;;;12.55;9.10;;;20.80;99.90;;;;;;5028452;28;20303;-68
2022/09/13 11:13:17;;;;;;;13.43;9.25;;;20.80;99.90;;;;;;5020422;28;20203;-68
2022/09/13 11:16:07;;;;;;;11.63;9.20;;;20.70;99.90;;;;;;5021817;28;20682;-68
2022/09/13 11:18:59;;;;;;;10.65;7.90;;;20.50;99.90;;;;;;5024619;28;20226;-67
2022/09/13 11:21:46;;;;;;;11.48;9.35;;;20.30;99.90;;;;;;5019650;28;20247;-68
2022/09/13 11:24:44;;;;;;;10.00;7.82;;;20.30;99.90;;;;;;5033688;28;20223;-68
2022/09/13 11:27:23;;;;;;;11.25;8.63;;;20.20;99.90;;;;;;5008360;28;20255;-68
2022/09/13 11:29:48;;;;;;;11.65;8.75;;;20.20;99.90;;;;;;5023923;28;20304;-70
2022/09/13 11:32:26;;;;;;;9.68;8.68;;;20.20;99.90;;;;;;5022164;28;20268;-69
2022/09/13 11:35:17;;;;;;;10.70;8.82;;;20.20;99.90;;;;;;5027319;28;20622;-68
2022/09/13 11:38:09;;;;;;;12.07;8.82;;;20.20;99.90;;;;;;5025117;28;20307;-69
2022/09/13 11:40:55;;;;;;;11.75;8.50;;;20.10;99.90;;;;;;5028044;28;20674;-69
2022/09/13 11:43:53;;;;;;;10.30;8.52;;;20.20;99.90;;;;;;5029151;28;20216;-70
2022/09/13 11:46:27;;;;;;;12.68;8.20;;;20.20;99.90;;;;;;5025568;28;20201;-69
2022/09/13 11:49:02;;;;;;;11.10;7.97;;;20.30;99.90;;;;;;5027217;28;20290;-69
2022/09/13 11:51:41;;;;;;;13.57;7.90;;;20.40;99.90;;;;;;5029398;28;20219;-69
2022/09/13 11:54:25;;;;;;;11.20;7.22;;;20.40;99.90;;;;;;5035869;28;20291;-70
2022/09/13 11:56:58;;;;;;;10.60;8.77;;;20.30;99.90;;;;;;5023800;28;20204;-70
2022/09/13 11:59:41;;;;;;;11.93;9.27;;;20.40;99.90;;;;;;5026394;28;20670;-70
2022/09/13 12:02:43;;;;;;;10.48;8.10;;;20.20;99.90;;;;;;5029555;28;20638;-69
2022/09/13 12:05:22;;;;;;;10.20;8.05;;;20.20;99.90;;;;;;5018692;28;20212;-70
2022/09/13 12:07:58;;;;;;;10.65;8.57;;;20.20;99.90;;;;;;5026642;28;20204;-69
2022/09/13 12:10:29;;;;;;;9.85;8.20;;;20.30;99.90;;;;;;5030676;28;20208;-68
2022/09/13 12:12:56;;;;;;;12.52;8.90;;;20.20;99.90;;;;;;5028803;28;20299;-69
2022/09/13 12:15:28;;;;;;;10.80;8.02;;;20.20;99.90;;;;;;5025892;28;20201;-69
2022/09/13 12:18:04;;;;;;;10.57;9.48;;;20.20;99.90;;;;;;5027001;28;20247;-69
2022/09/13 12:20:35;;;;;;;14.50;9.70;;;20.00;99.90;;;;;;5024837;28;20561;-69
2022/09/13 12:23:04;;;;;;;14.30;10.85;;;19.80;99.90;;;;;;5024464;28;20188;-69
2022/09/13 12:25:49;;;;;;;12.98;9.70;;;19.70;99.90;;;;;;5027394;28;20283;-69
2022/09/13 12:28:29;;;;;;;15.10;10.23;;;19.60;99.90;;;;;;5030426;28;20200;-69
2022/09/13 12:31:15;;;;;;;12.68;10.32;;;19.60;99.90;;;;;;5015422;28;20208;-69
2022/09/13 12:33:42;;;;;;;15.95;10.65;;;19.60;99.90;;;;;;5025170;28;20239;-69
2022/09/13 12:36:32;;;;;;;14.00;10.80;;;19.60;99.90;;;;;;5029461;28;20216;-69
2022/09/13 12:39:31;;;;;;;12.80;10.63;;;19.70;99.90;;;;;;5033306;28;20251;-69
2022/09/13 12:42:11;;;;;;;13.32;10.15;;;19.70;99.90;;;;;;5025688;28;20223;-69
2022/09/13 12:44:44;;;;;;;14.65;11.30;;;19.60;99.90;;;;;;5026453;28;20576;-70
2022/09/13 12:47:34;;;;;;;11.95;10.55;;;19.60;99.90;;;;;;5026327;28;20180;-70
2022/09/13 12:50:34;;;;;;;13.68;10.13;;;19.60;99.90;;;;;;5023973;28;20208;-70
2022/09/13 12:53:36;;;;;;;12.57;9.15;;;19.70;99.90;;;;;;5027235;28;20217;-71
2022/09/13 12:56:23;;;;;;;12.40;9.63;;;19.80;99.90;;;;;;5021541;28;20228;-70
2022/09/13 12:59:21;;;;;;;13.52;9.30;;;19.90;99.90;;;;;;5025343;28;20224;-71
2022/09/13 13:01:49;;;;;;;11.13;9.02;;;19.80;99.90;;;;;;5028869;28;20232;-71
2022/09/13 13:04:16;;;;;;;14.18;9.45;;;19.90;99.90;;;;;;5024639;28;20213;-70
2022/09/13 13:06:56;;;;;;;13.50;9.77;;;20.00;99.90;;;;;;5023063;28;20204;-70
2022/09/13 13:09:41;;;;;;;12.27;10.25;;;20.00;99.90;;;;;;5028177;28;20196;-70
2022/09/13 13:12:09;;;;;;;12.45;9.75;;;20.10;99.90;;;;;;5022489;28;20224;-70
2022/09/13 13:14:37;;;;;;;11.77;9.55;;;20.10;99.90;;;;;;5024884;28;20245;-70
2022/09/13 13:17:40;;;;;;;11.27;9.30;;;20.20;99.90;;;;;;5027349;28;20172;-70
2022/09/13 13:20:40;;;;;;;12.05;8.80;;;20.30;99.90;;;;;;5027059;28;20589;-70
2022/09/13 13:23:18;;;;;;;11.23;8.43;;;20.30;99.90;;;;;;5025251;28;20569;-70